Gifford, Arkansas
Current Conditions -  °F | °C
As of 4:53 AM on Thursday 18 Dec 2014 (Local Time) from KHOT Reporting Station
Haze Haze  
Wind Chill:   Ceiling: 500
Heat Index:   Visibility: 6mi
Dew Point:   Wind: 5mph
Humidity: 96%   Direction: 100°E
Pressure: 30.19"   Gusts: NA
Location:  34.3189°N, 92.8629°W
Report Text: KHOT 181053Z AUTO 10004KT 6SM BR OVC005 03/02 A3019 RMK AO2 RAE46 SLP224 P0000 T00280022
Loading
Personal Weather Stations






























Interactive Weather Map New forecast layout! Learn more

10-Day Weather Forecast

Advertisements
Track Severe Weather on mobile